In Rescue
 
Open Full Screen Window  High Contrast Mode
Wind Gusting 00 knots
08
November 27, 2020 11:05 PM CST
Weather Information
Wind Direction
  200 °
Wind Speed
  08 kt (9 mph)
Wind Gust
  00 kt (0 mph)
Altimeter
29.95 in
Visibility
10 SM
Temperature
-01° C
30° F
Dewpoint
-03° C
27° F
Humidity
86%
1hr Rain Fall
00.00 in.
24hr Rain Fall
00.00 in.
Sky Condition
Clear
VFR

METAR KY63 280505Z AUTO 20008KT 10SM CLR M01/M03 A2995 RMK AO2 T10111035

FAA Disclaimer: The data displayed is for advisory purposes only and is not to be used for flight planning or operations.